Time;durP1;ratioP1;P1;durP2;ratioP2;P2;SDS_P1;SDS_P2;PMS_P1;PMS_P2;Temp;Humidity;BMP_temperature;BMP_pressure;BME280_temperature;BME280_humidity;BME280_pressure;Samples;Min_cycle;Max_cycle;Signal;HPM_P1;HPM_P2
2022/01/28 00:00:06;;;;;;;4.33;0.70;;;3.00;99.90;;;;;;4151403;28;20479;-81
2022/01/28 00:02:16;;;;;;;7.57;1.03;;;3.00;99.90;;;;;;4148585;28;20542;-81
2022/01/28 00:04:18;;;;;;;4.87;0.80;;;3.00;99.90;;;;;;4149781;28;20449;-81
2022/01/28 00:06:20;;;;;;;2.07;0.50;;;3.00;99.90;;;;;;4168328;28;20516;-81
2022/01/28 00:08:22;;;;;;;7.10;1.30;;;3.00;99.90;;;;;;4151968;28;20474;-81
2022/01/28 00:10:26;;;;;;;5.03;0.80;;;3.00;99.90;;;;;;4160893;28;20520;-82
2022/01/28 00:12:30;;;;;;;4.00;1.27;;;3.00;99.90;;;;;;4163207;28;20457;-81
2022/01/28 00:14:40;;;;;;;8.43;0.80;;;3.00;99.90;;;;;;4164041;28;20461;-81
2022/01/28 00:17:15;;;;;;;5.87;0.90;;;3.00;99.90;;;;;;4160081;28;20997;-80
2022/01/28 00:19:55;;;;;;;11.53;1.50;;;3.00;99.90;;;;;;4157438;28;20456;-81
2022/01/28 00:38:26;;;;;;;7.40;0.80;;;3.00;99.90;;;;;;4150306;28;20536;-82
2022/01/28 00:40:29;;;;;;;6.03;1.30;;;3.00;99.90;;;;;;4177002;28;20515;-80
2022/01/28 00:42:31;;;;;;;6.03;1.30;;;3.10;99.90;;;;;;4182888;28;20456;-81
2022/01/28 00:44:34;;;;;;;15.10;3.43;;;3.00;99.90;;;;;;4167971;28;20837;-82
2022/01/28 00:46:36;;;;;;;7.27;0.90;;;3.10;99.90;;;;;;4165443;28;20493;-81
2022/01/28 00:48:38;;;;;;;11.43;1.20;;;3.20;99.90;;;;;;4165315;28;20853;-81
2022/01/28 00:50:41;;;;;;;7.60;1.03;;;3.10;99.90;;;;;;4164657;28;20473;-81
2022/01/28 00:52:43;;;;;;;11.27;1.80;;;3.10;99.90;;;;;;4166084;28;20466;-81
2022/01/28 00:54:45;;;;;;;6.70;1.00;;;3.20;99.90;;;;;;4161112;28;20490;-81
2022/01/28 00:56:47;;;;;;;6.67;1.13;;;3.20;99.90;;;;;;4165984;28;20442;-80
2022/01/28 00:58:49;;;;;;;7.90;1.23;;;3.20;99.90;;;;;;4166270;28;21015;-81
2022/01/28 01:00:52;;;;;;;6.10;1.27;;;3.30;99.90;;;;;;4167015;28;21019;-81
2022/01/28 01:02:54;;;;;;;6.07;1.30;;;3.30;99.90;;;;;;4167051;28;20823;-81
2022/01/28 01:04:56;;;;;;;9.20;1.27;;;3.30;99.90;;;;;;4164696;28;20486;-81
2022/01/28 01:06:58;;;;;;;4.73;1.03;;;3.30;99.90;;;;;;4162376;28;20486;-81
2022/01/28 01:09:00;;;;;;;9.33;1.20;;;3.40;99.90;;;;;;4164775;28;20457;-80
2022/01/28 01:11:01;;;;;;;7.60;1.00;;;3.40;99.90;;;;;;4165472;28;20465;-81
2022/01/28 01:13:04;;;;;;;7.23;1.13;;;3.40;99.90;;;;;;4167031;28;20488;-80
2022/01/28 01:15:07;;;;;;;6.03;1.20;;;3.40;99.90;;;;;;4163541;28;20497;-81
2022/01/28 01:17:21;;;;;;;7.03;1.23;;;3.40;99.90;;;;;;4166132;28;20431;-80
2022/01/28 01:19:25;;;;;;;8.07;1.30;;;3.40;99.90;;;;;;4165037;28;20442;-80
2022/01/28 01:21:29;;;;;;;11.73;1.10;;;3.40;99.90;;;;;;4164582;28;20457;-81
2022/01/28 01:23:33;;;;;;;8.47;1.00;;;3.40;99.90;;;;;;4158499;28;20536;-81
2022/01/28 01:25:43;;;;;;;2.60;0.83;;;3.40;99.90;;;;;;4158391;28;20485;-80
2022/01/28 01:27:48;;;;;;;5.10;1.10;;;3.40;99.90;;;;;;4170780;28;20468;-80
2022/01/28 01:29:50;;;;;;;11.70;1.00;;;3.40;99.90;;;;;;4175287;28;20473;-80
2022/01/28 01:32:00;;;;;;;10.43;1.17;;;3.40;99.90;;;;;;4161318;28;20987;-80
2022/01/28 01:34:10;;;;;;;6.57;0.87;;;3.50;99.90;;;;;;4161569;28;20560;-80
2022/01/28 01:36:12;;;;;;;6.27;0.97;;;3.50;99.90;;;;;;4169624;28;20980;-80
2022/01/28 01:38:14;;;;;;;5.03;1.03;;;3.50;99.90;;;;;;4167538;28;20527;-80
2022/01/28 01:40:24;;;;;;;7.10;0.83;;;3.50;99.90;;;;;;4164237;28;20477;-80
2022/01/28 01:42:34;;;;;;;5.63;1.07;;;3.50;99.90;;;;;;4181180;28;20976;-80
2022/01/28 01:44:58;;;;;;;6.83;1.00;;;3.50;99.90;;;;;;4174236;28;20469;-81
2022/01/28 01:52:04;;;;;;;4.10;0.80;;;3.50;99.90;;;;;;4158115;28;20437;-80
2022/01/28 01:54:06;;;;;;;5.27;0.87;;;3.60;99.90;;;;;;4170184;28;20456;-80
2022/01/28 01:56:08;;;;;;;4.03;0.87;;;3.50;99.90;;;;;;4223277;23;20536;-75
2022/01/28 01:58:10;;;;;;;5.90;0.90;;;3.60;99.90;;;;;;4210229;28;20473;-75
2022/01/28 02:00:16;;;;;;;4.90;0.77;;;3.50;99.90;;;;;;4214660;28;20830;-75
2022/01/28 02:02:18;;;;;;;3.67;1.20;;;3.50;99.90;;;;;;4214596;28;20800;-75
2022/01/28 02:04:19;;;;;;;6.80;1.30;;;3.50;99.90;;;;;;4212791;28;21029;-75
2022/01/28 02:06:26;;;;;;;4.03;1.00;;;3.50;99.90;;;;;;4212560;28;20486;-75
2022/01/28 02:08:32;;;;;;;10.90;2.03;;;3.50;99.90;;;;;;4208184;28;20463;-74
2022/01/28 02:10:34;;;;;;;5.93;0.90;;;3.50;99.90;;;;;;4213720;28;20459;-74
2022/01/28 02:12:46;;;;;;;6.13;1.43;;;3.50;99.90;;;;;;4213995;28;20463;-75
2022/01/28 02:14:48;;;;;;;4.93;0.80;;;3.50;99.90;;;;;;4212648;28;20508;-75
2022/01/28 02:16:50;;;;;;;7.00;1.27;;;3.50;99.90;;;;;;4204849;28;20542;-75
2022/01/28 02:18:55;;;;;;;4.80;1.20;;;3.50;99.90;;;;;;4205514;28;20935;-75
2022/01/28 02:21:05;;;;;;;8.17;1.10;;;3.50;99.90;;;;;;4213990;28;20459;-75
2022/01/28 02:23:07;;;;;;;5.53;1.27;;;3.50;99.90;;;;;;4203353;28;20852;-75
2022/01/28 02:25:21;;;;;;;3.17;0.97;;;3.50;99.90;;;;;;4219284;28;20535;-74
2022/01/28 02:27:23;;;;;;;11.17;1.40;;;3.50;99.90;;;;;;4213584;28;21005;-75
2022/01/28 02:29:29;;;;;;;5.83;1.40;;;3.50;99.90;;;;;;4213838;28;20462;-75
2022/01/28 02:31:31;;;;;;;10.67;1.60;;;3.50;99.90;;;;;;4212700;28;20459;-75
2022/01/28 02:33:33;;;;;;;4.33;1.00;;;3.60;99.90;;;;;;4209872;28;21006;-74
2022/01/28 02:35:34;;;;;;;11.47;1.50;;;3.60;99.90;;;;;;4213626;28;20471;-75
2022/01/28 02:37:37;;;;;;;8.53;1.50;;;3.60;99.90;;;;;;4211650;28;20601;-75
2022/01/28 02:39:39;;;;;;;7.77;1.50;;;3.60;99.90;;;;;;4221858;28;20946;-75
2022/01/28 02:41:45;;;;;;;5.47;1.40;;;3.60;99.90;;;;;;4207626;28;20468;-75
2022/01/28 02:44:01;;;;;;;8.80;1.40;;;3.60;99.90;;;;;;4206270;28;20467;-75
2022/01/28 02:46:07;;;;;;;6.00;1.10;;;3.60;99.90;;;;;;4213632;28;20974;-75
2022/01/28 02:48:16;;;;;;;13.97;1.80;;;3.60;99.90;;;;;;4213931;28;20475;-75
2022/01/28 02:50:18;;;;;;;3.63;1.13;;;3.60;99.90;;;;;;4214126;28;20458;-74
2022/01/28 02:52:29;;;;;;;6.93;1.40;;;3.60;99.90;;;;;;4212174;28;20471;-75
2022/01/28 02:54:39;;;;;;;11.83;1.50;;;3.60;99.90;;;;;;4213229;28;20550;-74
2022/01/28 02:56:48;;;;;;;8.93;1.30;;;3.70;99.90;;;;;;4213101;28;20654;-75
2022/01/28 02:58:51;;;;;;;7.80;1.30;;;3.60;99.90;;;;;;4210757;28;20931;-75
2022/01/28 03:00:54;;;;;;;11.23;1.67;;;3.60;99.90;;;;;;4197003;28;20501;-75
2022/01/28 03:02:58;;;;;;;10.87;1.70;;;3.60;99.90;;;;;;4211955;28;20723;-74
2022/01/28 03:07:15;;;;;;;13.63;1.43;;;3.60;99.90;;;;;;4214687;28;20901;-75
2022/01/28 03:09:20;;;;;;;13.00;1.60;;;3.60;99.90;;;;;;4212868;28;20543;-75
2022/01/28 03:11:43;;;;;;;9.00;1.10;;;3.60;99.90;;;;;;4213570;28;20477;-75
2022/01/28 03:16:10;;;;;;;8.00;1.03;;;3.60;99.90;;;;;;4210769;28;20537;-75
2022/01/28 03:18:15;;;;;;;8.07;1.30;;;3.60;99.90;;;;;;4213329;28;20470;-75
2022/01/28 03:20:34;;;;;;;4.80;0.93;;;3.60;99.90;;;;;;4216574;28;20458;-74
2022/01/28 03:22:35;;;;;;;6.47;1.10;;;3.60;99.90;;;;;;4196927;28;20455;-74
2022/01/28 03:24:39;;;;;;;7.97;1.10;;;3.60;99.90;;;;;;4205337;28;20937;-74
2022/01/28 03:26:42;;;;;;;6.30;1.03;;;3.60;99.90;;;;;;4213111;28;20559;-74
2022/01/28 03:28:43;;;;;;;7.37;1.17;;;4.10;99.90;;;;;;4212954;28;20463;-76
2022/01/28 03:30:45;;;;;;;7.60;1.10;;;3.60;99.90;;;;;;4213161;28;20443;-74
2022/01/28 03:32:47;;;;;;;8.67;1.27;;;3.60;99.90;;;;;;4196277;28;20534;-74
2022/01/28 03:34:49;;;;;;;9.57;1.23;;;3.50;99.90;;;;;;4214869;28;20475;-74
2022/01/28 03:36:52;;;;;;;10.20;1.20;;;3.50;99.90;;;;;;4211981;28;20806;-74
2022/01/28 03:38:53;;;;;;;4.53;0.80;;;3.50;99.90;;;;;;4212091;28;20466;-74
2022/01/28 03:40:56;;;;;;;3.60;1.10;;;3.50;99.90;;;;;;4201972;28;20991;-74
2022/01/28 03:42:59;;;;;;;10.27;1.33;;;3.40;99.90;;;;;;4212028;28;20459;-75
2022/01/28 03:45:01;;;;;;;10.30;1.27;;;3.50;99.90;;;;;;4212894;28;20485;-74
2022/01/28 03:47:03;;;;;;;4.50;0.90;;;3.40;99.90;;;;;;4213046;28;20494;-75
2022/01/28 03:49:05;;;;;;;9.03;1.33;;;3.40;99.90;;;;;;4208972;28;20906;-74
2022/01/28 03:51:07;;;;;;;5.17;1.07;;;3.40;99.90;;;;;;4213162;28;20867;-74
2022/01/28 03:53:09;;;;;;;5.50;1.20;;;3.40;99.90;;;;;;4211912;28;20827;-74
2022/01/28 03:55:11;;;;;;;5.50;1.10;;;3.40;99.90;;;;;;4212310;28;20487;-74
2022/01/28 03:57:13;;;;;;;3.90;1.20;;;3.40;99.90;;;;;;4213269;28;20444;-74
2022/01/28 03:59:16;;;;;;;9.43;1.10;;;3.40;99.90;;;;;;4210521;28;20500;-75
2022/01/28 04:01:22;;;;;;;6.27;0.93;;;3.40;99.90;;;;;;4212693;28;20504;-74
2022/01/28 04:03:46;;;;;;;10.07;1.17;;;3.70;99.90;;;;;;4212890;28;20540;-74
2022/01/28 04:13:00;;;;;;;4.20;1.20;;;3.50;99.90;;;;;;4159374;28;20431;-74
2022/01/28 04:15:19;;;;;;;7.30;1.30;;;3.50;99.90;;;;;;4208263;28;21946;-74
2022/01/28 04:17:21;;;;;;;9.70;1.10;;;3.50;99.90;;;;;;4212168;28;20446;-74
2022/01/28 04:19:23;;;;;;;8.60;1.33;;;3.60;99.90;;;;;;4212745;28;20959;-75
2022/01/28 04:21:25;;;;;;;9.90;1.40;;;3.60;99.90;;;;;;4216345;28;20883;-74
2022/01/28 04:23:28;;;;;;;11.93;1.57;;;3.60;99.90;;;;;;4215560;28;20455;-75
2022/01/28 04:25:30;;;;;;;9.80;1.70;;;3.70;99.90;;;;;;4205754;28;20482;-74
2022/01/28 04:27:32;;;;;;;14.20;1.60;;;3.70;99.90;;;;;;4215808;28;20548;-75
2022/01/28 04:29:34;;;;;;;6.07;1.80;;;3.70;99.90;;;;;;4214925;28;20508;-74
2022/01/28 04:31:41;;;;;;;11.90;1.83;;;3.70;99.90;;;;;;4205593;28;20559;-76
2022/01/28 04:33:43;;;;;;;5.47;1.43;;;3.70;99.90;;;;;;4201008;28;20475;-74
2022/01/28 04:35:47;;;;;;;9.63;1.60;;;3.80;99.90;;;;;;4214710;28;20462;-74
2022/01/28 04:37:59;;;;;;;7.33;1.80;;;3.80;99.90;;;;;;4223002;28;21218;-74
2022/01/28 04:40:09;;;;;;;10.67;2.27;;;3.80;99.90;;;;;;4213855;28;21014;-74
2022/01/28 04:42:20;;;;;;;7.10;2.03;;;3.80;99.90;;;;;;4203558;28;20460;-74
2022/01/28 04:44:29;;;;;;;10.70;1.53;;;3.80;99.90;;;;;;4212763;28;20459;-75
2022/01/28 04:46:38;;;;;;;5.63;1.20;;;3.80;99.90;;;;;;4210826;28;20543;-74
2022/01/28 04:48:48;;;;;;;11.47;1.80;;;3.80;99.90;;;;;;4215160;28;20469;-75
2022/01/28 04:51:05;;;;;;;9.47;1.40;;;3.90;99.90;;;;;;4214162;28;20470;-75
2022/01/28 04:53:29;;;;;;;9.17;1.30;;;3.90;99.90;;;;;;4213340;28;20542;-74
2022/01/28 04:55:59;;;;;;;9.17;1.60;;;3.90;99.90;;;;;;4215271;28;20552;-74
2022/01/28 04:58:13;;;;;;;13.37;1.20;;;3.90;99.90;;;;;;4215382;28;20455;-74
2022/01/28 05:00:24;;;;;;;12.73;1.47;;;3.90;99.90;;;;;;4214425;28;20466;-74
2022/01/28 05:02:50;;;;;;;15.67;1.70;;;4.00;99.90;;;;;;4215442;28;20468;-74
2022/01/28 05:05:13;;;;;;;13.80;2.00;;;4.00;99.90;;;;;;4215332;28;20458;-75
2022/01/28 05:07:37;;;;;;;5.30;1.30;;;4.00;99.90;;;;;;4209794;28;20485;-75
2022/01/28 05:12:43;;;;;;;11.97;1.70;;;4.00;99.90;;;;;;4184900;28;20440;-74
2022/01/28 05:15:08;;;;;;;7.57;2.33;;;4.00;99.90;;;;;;4212828;28;20462;-74
2022/01/28 05:24:41;;;;;;;12.50;1.50;;;4.00;99.90;;;;;;4214547;28;20829;-75
2022/01/28 05:26:54;;;;;;;8.27;1.80;;;4.00;99.90;;;;;;4216649;28;20983;-74
2022/01/28 05:28:55;;;;;;;11.60;1.97;;;4.00;99.90;;;;;;4213644;28;20511;-74
2022/01/28 05:30:57;;;;;;;8.20;1.50;;;4.00;99.90;;;;;;4215021;28;20459;-75
2022/01/28 05:32:59;;;;;;;10.60;1.90;;;4.00;99.90;;;;;;4213340;28;20471;-74
2022/01/28 05:35:01;;;;;;;10.90;1.57;;;3.90;99.90;;;;;;4211806;28;20505;-74
2022/01/28 05:37:05;;;;;;;10.20;1.83;;;3.90;99.90;;;;;;4212352;28;20459;-75
2022/01/28 05:39:06;;;;;;;11.97;1.40;;;3.90;99.90;;;;;;4213354;28;20516;-76
2022/01/28 05:41:08;;;;;;;5.67;1.13;;;3.90;99.90;;;;;;4213131;28;20489;-75
2022/01/28 05:43:10;;;;;;;10.03;2.23;;;3.90;99.90;;;;;;4202956;28;20526;-76
2022/01/28 05:45:12;;;;;;;7.97;1.83;;;3.90;99.90;;;;;;4214102;28;20822;-77
2022/01/28 05:47:15;;;;;;;11.83;1.57;;;3.80;99.90;;;;;;4214748;28;20490;-81
2022/01/28 05:49:17;;;;;;;14.00;1.63;;;3.80;99.90;;;;;;4216997;28;20463;-75
2022/01/28 05:51:18;;;;;;;12.00;1.47;;;3.80;99.90;;;;;;4211698;28;20870;-76
2022/01/28 05:53:23;;;;;;;10.80;1.63;;;3.80;99.90;;;;;;4215637;28;20959;-79
2022/01/28 05:55:25;;;;;;;15.97;2.37;;;3.70;99.90;;;;;;4211889;28;20482;-76
2022/01/28 05:57:27;;;;;;;12.43;1.37;;;3.70;99.90;;;;;;4210441;28;20539;-76
2022/01/28 05:59:30;;;;;;;14.77;1.53;;;3.70;99.90;;;;;;4212263;28;20516;-76
2022/01/28 06:01:34;;;;;;;13.20;1.53;;;3.70;99.90;;;;;;4209986;28;20463;-76
2022/01/28 06:03:36;;;;;;;12.93;1.80;;;3.70;99.90;;;;;;4204031;28;20451;-76
2022/01/28 06:05:38;;;;;;;10.47;1.57;;;3.70;99.90;;;;;;4216601;28;20536;-78
2022/01/28 06:07:42;;;;;;;8.90;1.73;;;3.60;99.90;;;;;;4213599;28;20862;-75
2022/01/28 06:09:45;;;;;;;7.73;1.57;;;3.60;99.90;;;;;;4213123;28;20467;-76
2022/01/28 06:11:47;;;;;;;10.03;1.43;;;3.60;99.90;;;;;;4212166;28;20461;-76
2022/01/28 06:13:49;;;;;;;11.43;1.57;;;3.60;99.90;;;;;;4213888;28;20865;-77
2022/01/28 06:15:50;;;;;;;7.70;1.20;;;3.60;99.90;;;;;;4213510;28;20471;-78
2022/01/28 06:17:52;;;;;;;5.53;1.20;;;3.50;99.90;;;;;;4206649;28;20512;-76
2022/01/28 06:19:54;;;;;;;7.40;1.23;;;3.50;99.90;;;;;;4213466;28;20832;-76
2022/01/28 06:21:56;;;;;;;10.57;1.70;;;3.50;99.90;;;;;;4210699;28;20536;-78
2022/01/28 06:23:57;;;;;;;5.93;1.20;;;3.40;99.90;;;;;;4216017;28;20455;-77
2022/01/28 06:26:01;;;;;;;10.47;1.43;;;3.40;99.90;;;;;;4213780;28;20889;-76
2022/01/28 06:28:02;;;;;;;7.13;1.40;;;3.40;99.90;;;;;;4213544;28;20536;-75
2022/01/28 06:30:06;;;;;;;5.90;1.33;;;3.40;99.90;;;;;;4199718;28;20460;-76
2022/01/28 06:32:09;;;;;;;11.67;1.53;;;3.30;99.90;;;;;;4203943;28;21031;-76
2022/01/28 06:34:11;;;;;;;7.33;1.40;;;3.30;99.90;;;;;;4213357;28;20482;-76
2022/01/28 06:36:13;;;;;;;13.83;1.80;;;3.30;99.90;;;;;;4212267;28;20513;-77
2022/01/28 06:38:15;;;;;;;11.53;1.70;;;3.40;99.90;;;;;;4212528;28;20475;-75
2022/01/28 06:40:18;;;;;;;11.97;2.00;;;3.40;99.90;;;;;;4212971;28;20588;-78
2022/01/28 06:42:23;;;;;;;10.30;1.90;;;3.40;99.90;;;;;;4213833;28;20535;-76
2022/01/28 06:44:25;;;;;;;10.27;1.93;;;3.40;99.90;;;;;;4213217;28;20455;-76
2022/01/28 06:46:27;;;;;;;10.43;1.57;;;3.40;99.90;;;;;;4212759;28;20585;-76
2022/01/28 06:48:29;;;;;;;5.50;1.40;;;3.40;99.90;;;;;;4204635;28;21013;-75
2022/01/28 06:50:33;;;;;;;15.80;2.10;;;3.40;99.90;;;;;;4212642;28;20470;-76
2022/01/28 06:52:37;;;;;;;13.47;2.07;;;3.40;99.90;;;;;;4208981;28;20443;-75
2022/01/28 06:54:38;;;;;;;12.37;1.80;;;3.50;99.90;;;;;;4212314;28;20465;-76
2022/01/28 06:56:40;;;;;;;10.90;2.00;;;3.30;99.90;;;;;;4207936;28;20954;-75
2022/01/28 06:58:43;;;;;;;13.57;2.57;;;3.60;99.90;;;;;;4211461;28;20871;-76
2022/01/28 07:00:45;;;;;;;15.50;1.50;;;3.50;99.90;;;;;;4211588;28;20513;-75
2022/01/28 07:02:46;;;;;;;15.23;2.30;;;3.50;99.90;;;;;;4212235;28;20471;-76
2022/01/28 07:04:48;;;;;;;16.90;2.27;;;3.60;99.90;;;;;;4214355;28;20982;-77
2022/01/28 07:06:50;;;;;;;10.10;2.00;;;3.60;99.90;;;;;;4212272;28;20871;-77
2022/01/28 07:08:52;;;;;;;11.87;1.67;;;3.60;99.90;;;;;;4211240;28;20486;-77
2022/01/28 07:10:54;;;;;;;12.07;2.03;;;3.80;99.90;;;;;;4209445;28;20547;-75
2022/01/28 07:12:56;;;;;;;10.47;1.60;;;3.60;99.90;;;;;;4204824;28;20479;-79
2022/01/28 07:14:59;;;;;;;7.53;1.97;;;3.60;99.90;;;;;;4209643;28;20511;-76
2022/01/28 07:17:03;;;;;;;14.77;2.00;;;3.60;99.90;;;;;;4204128;28;20479;-76
2022/01/28 07:19:06;;;;;;;14.13;1.67;;;3.60;99.90;;;;;;4200361;28;20452;-79
2022/01/28 07:21:08;;;;;;;10.93;1.93;;;3.70;99.90;;;;;;4200084;28;20555;-77
2022/01/28 07:23:10;;;;;;;13.23;2.13;;;3.70;99.90;;;;;;4203779;28;20455;-75
2022/01/28 07:25:12;;;;;;;12.00;2.10;;;3.70;99.90;;;;;;4202394;28;20504;-77
2022/01/28 07:27:19;;;;;;;12.93;2.33;;;3.70;99.90;;;;;;4206649;28;20471;-77
2022/01/28 07:29:22;;;;;;;12.13;1.80;;;3.80;99.90;;;;;;4211008;28;20818;-79
2022/01/28 07:31:25;;;;;;;10.13;1.80;;;3.70;99.90;;;;;;4211662;28;20462;-76
2022/01/28 07:33:27;;;;;;;20.67;3.37;;;3.70;99.90;;;;;;4207145;28;20482;-77
2022/01/28 07:35:31;;;;;;;10.67;2.10;;;3.80;99.90;;;;;;4208981;28;21089;-75
2022/01/28 07:37:33;;;;;;;11.97;2.10;;;3.80;99.90;;;;;;4210293;28;20478;-76
2022/01/28 07:39:35;;;;;;;13.57;3.23;;;4.00;99.90;;;;;;4216372;28;20955;-77
2022/01/28 07:41:37;;;;;;;8.87;1.80;;;3.80;99.90;;;;;;4211727;28;20479;-76
2022/01/28 07:43:41;;;;;;;12.47;2.03;;;3.80;99.90;;;;;;4212856;28;20569;-76
2022/01/28 07:45:43;;;;;;;14.40;1.63;;;3.80;99.90;;;;;;4214076;28;20524;-75
2022/01/28 07:47:46;;;;;;;10.83;1.80;;;3.80;99.90;;;;;;4213922;28;20467;-75
2022/01/28 07:49:48;;;;;;;14.80;2.30;;;3.80;99.90;;;;;;4216480;28;20918;-76
2022/01/28 07:51:50;;;;;;;14.27;2.00;;;3.80;99.90;;;;;;4216413;28;20530;-76
2022/01/28 07:53:52;;;;;;;11.87;2.43;;;3.80;99.90;;;;;;4216529;28;20466;-77
2022/01/28 07:55:54;;;;;;;13.50;2.20;;;3.80;99.90;;;;;;4230653;22;20581;-80
2022/01/28 07:57:56;;;;;;;8.70;2.00;;;3.80;99.90;;;;;;4197176;28;20481;-79
2022/01/28 07:59:57;;;;;;;10.20;1.60;;;3.80;99.90;;;;;;4210632;28;21152;-79
2022/01/28 08:01:59;;;;;;;15.63;2.20;;;3.80;99.90;;;;;;4211186;28;20546;-80
2022/01/28 08:04:02;;;;;;;13.60;2.63;;;3.80;99.90;;;;;;4212380;28;20447;-80
2022/01/28 08:06:04;;;;;;;10.57;2.27;;;3.80;99.90;;;;;;4211968;28;20997;-80
2022/01/28 08:08:08;;;;;;;16.23;2.43;;;3.80;99.90;;;;;;4210216;28;20482;-78
2022/01/28 08:10:10;;;;;;;11.63;2.27;;;3.80;99.90;;;;;;4211412;28;20478;-80
2022/01/28 08:12:12;;;;;;;14.73;2.33;;;3.80;99.90;;;;;;4212275;28;20455;-80
2022/01/28 08:14:14;;;;;;;15.80;2.10;;;3.80;99.90;;;;;;4211633;28;20459;-80
2022/01/28 08:16:16;;;;;;;13.37;2.00;;;3.80;99.90;;;;;;4211783;28;20477;-80
2022/01/28 08:18:18;;;;;;;10.10;2.10;;;3.80;99.90;;;;;;4212080;28;20966;-79
2022/01/28 08:20:21;;;;;;;15.03;2.63;;;3.80;99.90;;;;;;4211627;28;20818;-80
2022/01/28 08:22:23;;;;;;;13.30;2.00;;;3.80;99.90;;;;;;4213893;28;20478;-78
2022/01/28 08:24:24;;;;;;;10.70;2.00;;;3.80;99.90;;;;;;4210293;28;20516;-77
2022/01/28 08:26:26;;;;;;;7.73;1.50;;;3.80;99.90;;;;;;4211753;28;20478;-78
2022/01/28 08:28:28;;;;;;;12.10;2.23;;;3.80;99.90;;;;;;4212032;28;20482;-81
2022/01/28 08:30:30;;;;;;;14.07;2.53;;;3.80;99.90;;;;;;4212307;28;20463;-80
2022/01/28 08:32:32;;;;;;;10.80;2.10;;;3.80;99.90;;;;;;4210753;28;20524;-80
2022/01/28 08:34:34;;;;;;;11.53;2.07;;;3.70;99.90;;;;;;4209005;28;20455;-80
2022/01/28 08:36:37;;;;;;;15.20;2.50;;;3.80;99.90;;;;;;4212584;28;20482;-80
2022/01/28 08:38:44;;;;;;;11.67;2.40;;;3.70;99.90;;;;;;4210243;28;21017;-80
2022/01/28 08:40:48;;;;;;;9.60;1.77;;;3.70;99.90;;;;;;4211580;28;20454;-80
2022/01/28 08:42:50;;;;;;;8.47;2.10;;;3.70;99.90;;;;;;4211578;28;20463;-80
2022/01/28 08:44:52;;;;;;;13.80;2.23;;;3.70;99.90;;;;;;4211585;28;20474;-80
2022/01/28 08:46:54;;;;;;;9.20;1.90;;;3.80;99.90;;;;;;4212766;28;20471;-80
2022/01/28 08:48:56;;;;;;;12.63;1.90;;;3.80;99.90;;;;;;4207782;28;20490;-80
2022/01/28 08:50:57;;;;;;;12.63;2.17;;;3.90;99.90;;;;;;4210267;28;20467;-80
2022/01/28 08:53:00;;;;;;;10.10;1.73;;;3.80;99.90;;;;;;4211134;28;20672;-79
2022/01/28 08:55:04;;;;;;;22.07;2.60;;;3.80;99.90;;;;;;4210713;28;20481;-80
2022/01/28 08:57:06;;;;;;;14.50;1.97;;;3.90;99.90;;;;;;4211830;28;20474;-78
2022/01/28 08:59:07;;;;;;;12.47;2.07;;;3.90;99.90;;;;;;4208824;28;20468;-80
2022/01/28 09:01:10;;;;;;;14.60;2.50;;;3.90;99.90;;;;;;4212273;28;20450;-80
2022/01/28 09:03:12;;;;;;;10.57;1.77;;;3.90;99.90;;;;;;4211924;28;20435;-81
2022/01/28 09:05:14;;;;;;;12.07;2.10;;;3.90;99.90;;;;;;4209452;28;20460;-80
2022/01/28 09:07:18;;;;;;;12.17;2.07;;;3.90;99.90;;;;;;4209048;28;20470;-81
2022/01/28 09:09:21;;;;;;;13.60;2.20;;;3.90;99.90;;;;;;4210203;28;20582;-79
2022/01/28 09:11:44;;;;;;;13.90;2.73;;;3.90;99.90;;;;;;4211488;28;20485;-80
2022/01/28 09:13:46;;;;;;;16.83;2.93;;;3.90;99.90;;;;;;4209901;28;20864;-79
2022/01/28 09:15:48;;;;;;;14.63;3.00;;;3.90;99.90;;;;;;4207899;28;20844;-78
2022/01/28 09:17:52;;;;;;;10.53;2.03;;;4.00;99.90;;;;;;4211260;28;21248;-78
2022/01/28 09:19:54;;;;;;;11.80;2.33;;;4.00;99.90;;;;;;4209602;28;20462;-77
2022/01/28 09:21:55;;;;;;;13.57;2.00;;;4.10;99.90;;;;;;4212774;28;21051;-78
2022/01/28 09:23:57;;;;;;;10.10;2.17;;;4.10;99.90;;;;;;4209859;28;20566;-79
2022/01/28 09:26:00;;;;;;;13.10;1.70;;;4.20;99.90;;;;;;4210727;28;20479;-78
2022/01/28 09:28:02;;;;;;;13.73;2.70;;;4.20;99.90;;;;;;4209983;28;20950;-78
2022/01/28 09:30:05;;;;;;;14.87;2.27;;;4.30;99.90;;;;;;4212497;28;20482;-79
2022/01/28 09:32:08;;;;;;;8.53;2.07;;;4.30;99.90;;;;;;4210952;28;20475;-79
2022/01/28 09:34:10;;;;;;;7.17;1.53;;;4.30;99.90;;;;;;4210377;28;20533;-77
2022/01/28 09:36:12;;;;;;;8.27;2.00;;;4.40;99.90;;;;;;4211605;28;20478;-77
2022/01/28 09:38:14;;;;;;;13.67;2.20;;;4.40;99.90;;;;;;4211324;28;20943;-79
2022/01/28 09:40:16;;;;;;;11.30;2.60;;;4.40;99.90;;;;;;4211684;28;20461;-79
2022/01/28 09:42:21;;;;;;;13.03;2.13;;;4.40;99.90;;;;;;4210075;28;20471;-79
2022/01/28 09:44:23;;;;;;;11.93;1.77;;;4.40;99.90;;;;;;4208092;28;20570;-79
2022/01/28 09:46:25;;;;;;;13.97;2.30;;;4.30;99.90;;;;;;4210163;28;20523;-78
2022/01/28 09:48:27;;;;;;;8.03;2.00;;;4.10;99.90;;;;;;4209910;28;20463;-78
2022/01/28 09:50:30;;;;;;;14.70;1.90;;;4.00;99.90;;;;;;4210737;28;20462;-79
2022/01/28 09:52:33;;;;;;;16.30;2.73;;;3.90;99.90;;;;;;4210224;28;20592;-79
2022/01/28 09:54:36;;;;;;;12.93;2.47;;;3.70;99.90;;;;;;4210974;28;20475;-79
2022/01/28 09:56:38;;;;;;;11.87;2.50;;;3.70;99.90;;;;;;4212003;28;20495;-78
2022/01/28 09:58:42;;;;;;;11.10;1.93;;;3.60;99.90;;;;;;4211735;28;20456;-78
2022/01/28 10:00:44;;;;;;;16.00;2.13;;;3.50;99.90;;;;;;4210823;28;20470;-79
2022/01/28 10:02:54;;;;;;;7.20;1.67;;;3.40;99.90;;;;;;4210735;28;20463;-80
2022/01/28 10:04:56;;;;;;;12.13;2.40;;;3.30;99.90;;;;;;4211145;28;20443;-79
2022/01/28 10:06:59;;;;;;;16.90;2.53;;;3.20;99.90;;;;;;4211792;28;20978;-76
2022/01/28 10:09:07;;;;;;;8.67;1.73;;;3.10;99.90;;;;;;4209016;28;20486;-79
2022/01/28 10:11:20;;;;;;;11.47;2.00;;;3.10;99.90;;;;;;4210624;28;20497;-78
2022/01/28 10:13:28;;;;;;;13.33;2.20;;;3.10;99.90;;;;;;4210005;28;20498;-78
2022/01/28 10:15:31;;;;;;;16.00;2.13;;;3.10;99.90;;;;;;4214911;28;20508;-78
2022/01/28 10:17:53;;;;;;;16.67;1.90;;;3.10;99.90;;;;;;4211407;28;20465;-79
2022/01/28 10:20:07;;;;;;;14.83;2.27;;;3.20;99.90;;;;;;4210890;28;20474;-78
2022/01/28 10:22:17;;;;;;;18.93;2.30;;;3.20;99.90;;;;;;4207902;28;20565;-77
2022/01/28 10:24:21;;;;;;;8.30;1.80;;;3.20;99.90;;;;;;4209915;28;20459;-82
2022/01/28 10:26:31;;;;;;;15.97;2.57;;;3.30;99.90;;;;;;4210773;28;21066;-78
2022/01/28 10:28:34;;;;;;;15.87;2.20;;;3.30;99.90;;;;;;4209091;28;20458;-82
2022/01/28 10:30:39;;;;;;;11.50;2.43;;;3.40;99.90;;;;;;4210818;28;20451;-79
2022/01/28 10:32:43;;;;;;;16.53;2.77;;;3.40;99.90;;;;;;4210478;28;20463;-76
2022/01/28 10:34:46;;;;;;;18.83;2.53;;;3.40;99.90;;;;;;4209569;28;20477;-79
2022/01/28 10:36:49;;;;;;;20.40;2.47;;;3.50;99.90;;;;;;4208533;28;20520;-77
2022/01/28 10:38:57;;;;;;;13.37;2.70;;;3.60;99.90;;;;;;4209859;28;20467;-78
2022/01/28 10:41:17;;;;;;;13.10;2.30;;;3.60;99.90;;;;;;4211087;28;20433;-78
2022/01/28 10:43:25;;;;;;;11.57;2.13;;;3.70;99.90;;;;;;4210821;28;20981;-77
2022/01/28 10:45:31;;;;;;;20.30;2.30;;;3.70;99.90;;;;;;4208217;28;20826;-78
2022/01/28 10:47:37;;;;;;;16.63;2.27;;;3.80;99.90;;;;;;4210562;28;20451;-78
2022/01/28 10:49:39;;;;;;;11.93;1.70;;;3.90;99.90;;;;;;4208897;28;20715;-77
2022/01/28 10:51:43;;;;;;;19.60;2.40;;;3.90;99.90;;;;;;4209916;28;20458;-79
2022/01/28 10:54:03;;;;;;;11.63;1.80;;;4.00;99.90;;;;;;4206787;28;20467;-78
2022/01/28 10:56:12;;;;;;;18.03;2.63;;;4.10;99.90;;;;;;4210296;28;20490;-79
2022/01/28 10:58:15;;;;;;;16.10;2.50;;;4.10;99.90;;;;;;4212105;28;20449;-76
2022/01/28 11:00:18;;;;;;;12.30;2.50;;;4.20;99.90;;;;;;4210979;28;20842;-79
2022/01/28 11:02:19;;;;;;;13.50;2.07;;;4.20;99.90;;;;;;4209533;28;20482;-79
2022/01/28 11:04:23;;;;;;;17.40;3.33;;;4.30;99.90;;;;;;4211880;28;20447;-79
2022/01/28 11:06:25;;;;;;;9.47;2.13;;;4.30;99.90;;;;;;4211350;28;20467;-80
2022/01/28 11:08:30;;;;;;;18.93;3.20;;;4.30;99.90;;;;;;4211707;28;20462;-80
2022/01/28 11:10:32;;;;;;;14.67;1.90;;;4.40;99.90;;;;;;4213802;28;21207;-79
2022/01/28 11:12:34;;;;;;;15.73;2.53;;;4.60;99.90;;;;;;4210153;28;20475;-77
2022/01/28 11:14:36;;;;;;;14.00;1.87;;;4.40;99.90;;;;;;4212083;28;20980;-78
2022/01/28 11:16:38;;;;;;;19.63;3.03;;;4.40;99.90;;;;;;4213762;28;20463;-79
2022/01/28 11:18:40;;;;;;;13.80;2.17;;;4.40;99.90;;;;;;4211437;28;20469;-79
2022/01/28 11:20:49;;;;;;;11.27;2.53;;;4.40;99.90;;;;;;4211209;28;20464;-77
2022/01/28 11:23:05;;;;;;;20.30;2.80;;;4.40;99.90;;;;;;4209991;28;20465;-80
2022/01/28 11:25:16;;;;;;;16.43;2.43;;;4.50;99.90;;;;;;4210872;28;20479;-77
2022/01/28 11:27:23;;;;;;;22.13;3.77;;;4.60;99.90;;;;;;4207348;28;20455;-78
2022/01/28 11:29:26;;;;;;;13.33;1.97;;;4.70;99.90;;;;;;4209292;28;20505;-80
2022/01/28 11:31:45;;;;;;;10.37;1.87;;;4.80;99.90;;;;;;4209807;28;20988;-77
2022/01/28 11:33:49;;;;;;;12.80;2.30;;;4.90;99.90;;;;;;4204524;28;20465;-79
2022/01/28 11:36:04;;;;;;;14.00;2.53;;;4.90;99.90;;;;;;4206491;28;20488;-79